Aérodrome :
LOGIN :

S'inscrire | Disclaimer

   EN    FR    IT 

 










Légende :    VFR   VFR Marginal   IFR   IFR Intensif   IFR Très Intensif
Visi : 
Plafond : 
>= 8 km
>= 3000ft
5 à 8 km
1000 à 3000 ft
1500m à 5 km
500 à 1000 ft
800 à 1500m
200 à 500 ft
< 800m
< 200 ft
Symboles :   Orages  Brouillard  Fortes neiges  Fortes précipitations  Vent > 20 kt
SIGMETs :   Divers  Orages  Givrage  Turbulence  Onde Orograph.  Cendres Volcan.







- Altitude de l'aérodrome : 1504 ft
- Code IATA : PNA


LEPP - Noain Pamplona

DERNIER METAR :
  • 292030Z 09008KT 9999 FEW042 BKN050 12/06 Q1010

METARs EXPIRÉS :
  • 292000Z 10008KT 060V140 9999 BKN042 12/06 Q1010
  • 291930Z 09006KT 060V140 9999 BKN043 13/05 Q1010
  • 291900Z 10011KT 070V140 9999 BKN040 12/05 Q1010
  • 291830Z 11011KT 070V140 9999 BKN040 13/05 Q1010
  • 291800Z 11010KT 070V130 9999 BKN040 13/05 Q1010

TAF TAF LEPP
Valide du 29 à 21h jusqu'au 30 à 21h UTC


292000Z 2921/3021 14009KT 9999 FEW025 SCT040 TX18/3012Z TN05/3021Z
PROB30
TEMPO 2921/2923 SHRA FEW025TCU BKN035
TEMPO 2922/3010 12015G28KT
BECMG 3007/3010 20015G25KT
TEMPO 3007/3012 22020G37KT
TEMPO 3009/3015 3000 SHRA SCT025TCU
BECMG 3013/3017 33012KT
Pas de NOTAMs connus pour ce terrain.



MET'MAP, la Météo Aéronautique d'un coup d'oeil ! - Copyright ORBIFLY Décembre 2007 - Disclaimer

ORBIFLY MET'MAP TEAM :

Programmation & Développement : Alexandra Zaïnal
Conception & Développement : Baudouin d'Aumeries
Co-Programmation & Développement : Marc-Olivier Méhu
Soutien technique & logistique : Manuel Goepfert

Contact : metmap@orbifly.com




SOURCES & CREDITS :

   NOAA